CFB Trenton
CYTR : now visible

Airfield :











YOU CAN JOIN US ON...

 
LOGIN :

Register | Disclaimer

   EN    FR    IT 

 









Legend :    VFR   Marginal VFR   IFR   Intensive IFR   Very Intensive IFR
Visi :
Ceiling :
>= 8 km
>= 3000ft
5 to 8 km
1000 to 3000 ft
1500m to 5 km
500 to 1000 ft
800 to 1500m
200 to 500 ft
< 800m
< 200 ft
Symbols :   Thunderstorms  Fog  Heavy snow  Heavy precipitations  Wind > 20 kt






- Airport Elevation : 283 ft
- IATA code : YTR


CYTR - CFB Trenton

CURRENT METAR :
  • 141700Z 23010G15KT 3SM -SN OVC013 01/M02 A3014 RMK SF8 SLP213

EXPIRED METARs :
  • 141624Z 21013KT 4SM -SN OVC014 00/M01 A3015 RMK SF8 SLP215

TAF AMD TAF CYTR
Valid from the 14 at 15:00 until the 15 at 12:00 UTC


141507Z 1415/1512 20012KT 4SM -SN SCT012 OVC020
TEMPO 1415/1422 11/2SM -SN BKN012 OVC020
PROB30 1415/1422 3/4SM -SHSN VV008
FM142200 21010G20KT P6SM -SHSN BKN020 OVC040
PROB30 1422/1506 1SM -SHSN VV008
FM150600 26012KT P6SM BKN025
TEMPO 1506/1512 BKN020 RMK NXT FCST BY 141800Z



MET'MAP, your aeronautical weather chart ! - Copyright ORBIFLY December 2007 - Disclaimer

ORBIFLY MET'MAP TEAM :

Programming & Development : Alexandra Zaïnal
Concept & Development : Baudouin d'Aumeries
Co-Development & Prog : Marc-Olivier Méhu
Technical & hardware support : Manuel Goepfert

Contact : metmap@orbifly.com




SOURCES & CREDITS :

   NOAA       Earth
Advisory